sensor_id;sensor_type;location;lat;lon;timestamp;P1;durP1;ratioP1;P2;durP2;ratioP2
46563;SDS011;32291;52.010;4.446;2022-11-04T00:00:41;2.63;;;1.25;;
46563;SDS011;32291;52.010;4.446;2022-11-04T00:01:48;3.72;;;1.60;;
46563;SDS011;32291;52.010;4.446;2022-11-04T00:02:56;4.82;;;1.38;;
46563;SDS011;32291;52.010;4.446;2022-11-04T00:04:03;5.57;;;1.25;;
46563;SDS011;32291;52.010;4.446;2022-11-04T00:05:11;4.95;;;1.30;;
46563;SDS011;32291;52.010;4.446;2022-11-04T00:06:18;3.67;;;1.02;;
46563;SDS011;32291;52.010;4.446;2022-11-04T00:07:26;4.35;;;1.80;;
46563;SDS011;32291;52.010;4.446;2022-11-04T00:08:52;2.50;;;1.33;;
46563;SDS011;32291;52.010;4.446;2022-11-04T00:10:03;4.13;;;1.38;;
46563;SDS011;32291;52.010;4.446;2022-11-04T00:11:11;2.85;;;1.35;;
46563;SDS011;32291;52.010;4.446;2022-11-04T00:12:37;4.97;;;1.33;;
46563;SDS011;32291;52.010;4.446;2022-11-04T00:13:40;7.65;;;1.45;;
46563;SDS011;32291;52.010;4.446;2022-11-04T00:14:47;4.93;;;1.85;;
46563;SDS011;32291;52.010;4.446;2022-11-04T00:15:55;3.60;;;2.05;;
46563;SDS011;32291;52.010;4.446;2022-11-04T00:17:25;6.47;;;1.70;;
46563;SDS011;32291;52.010;4.446;2022-11-04T00:18:34;6.90;;;2.13;;
46563;SDS011;32291;52.010;4.446;2022-11-04T00:19:36;3.45;;;1.60;;
46563;SDS011;32291;52.010;4.446;2022-11-04T00:20:57;5.18;;;1.25;;
46563;SDS011;32291;52.010;4.446;2022-11-04T00:22:23;5.90;;;1.35;;
46563;SDS011;32291;52.010;4.446;2022-11-04T00:23:49;5.32;;;1.30;;
46563;SDS011;32291;52.010;4.446;2022-11-04T00:25:15;5.43;;;1.35;;
46563;SDS011;32291;52.010;4.446;2022-11-04T00:26:40;5.00;;;1.45;;
46563;SDS011;32291;52.010;4.446;2022-11-04T00:28:11;6.60;;;1.35;;
46563;SDS011;32291;52.010;4.446;2022-11-04T00:29:38;5.82;;;1.10;;
46563;SDS011;32291;52.010;4.446;2022-11-04T00:30:45;7.07;;;1.65;;
46563;SDS011;32291;52.010;4.446;2022-11-04T00:31:52;6.35;;;1.50;;
46563;SDS011;32291;52.010;4.446;2022-11-04T00:33:18;4.80;;;1.58;;
46563;SDS011;32291;52.010;4.446;2022-11-04T00:34:31;6.03;;;1.35;;
46563;SDS011;32291;52.010;4.446;2022-11-04T00:35:38;5.35;;;1.30;;
46563;SDS011;32291;52.010;4.446;2022-11-04T00:36:45;5.15;;;1.20;;
46563;SDS011;32291;52.010;4.446;2022-11-04T00:37:48;5.70;;;1.38;;
46563;SDS011;32291;52.010;4.446;2022-11-04T00:38:55;7.00;;;1.65;;
46563;SDS011;32291;52.010;4.446;2022-11-04T00:39:58;4.47;;;1.55;;
46563;SDS011;32291;52.010;4.446;2022-11-04T00:41:00;7.65;;;1.27;;
46563;SDS011;32291;52.010;4.446;2022-11-04T00:42:07;4.50;;;1.10;;
46563;SDS011;32291;52.010;4.446;2022-11-04T00:43:14;5.15;;;1.40;;
46563;SDS011;32291;52.010;4.446;2022-11-04T00:44:21;4.18;;;1.65;;
46563;SDS011;32291;52.010;4.446;2022-11-04T00:45:29;5.05;;;1.45;;
46563;SDS011;32291;52.010;4.446;2022-11-04T00:46:36;7.65;;;2.10;;
46563;SDS011;32291;52.010;4.446;2022-11-04T00:47:43;3.53;;;1.85;;
46563;SDS011;32291;52.010;4.446;2022-11-04T00:48:50;7.25;;;1.60;;
46563;SDS011;32291;52.010;4.446;2022-11-04T00:49:52;4.85;;;1.40;;
46563;SDS011;32291;52.010;4.446;2022-11-04T00:50:55;6.50;;;1.50;;
46563;SDS011;32291;52.010;4.446;2022-11-04T00:52:02;5.60;;;1.90;;
46563;SDS011;32291;52.010;4.446;2022-11-04T00:53:05;9.70;;;1.63;;
46563;SDS011;32291;52.010;4.446;2022-11-04T00:54:07;5.60;;;1.48;;
46563;SDS011;32291;52.010;4.446;2022-11-04T00:55:14;6.18;;;1.70;;
46563;SDS011;32291;52.010;4.446;2022-11-04T00:56:21;5.38;;;1.60;;
46563;SDS011;32291;52.010;4.446;2022-11-04T00:57:29;6.05;;;1.40;;
46563;SDS011;32291;52.010;4.446;2022-11-04T00:58:32;4.40;;;1.40;;
46563;SDS011;32291;52.010;4.446;2022-11-04T00:59:35;4.15;;;1.88;;
46563;SDS011;32291;52.010;4.446;2022-11-04T01:00:42;4.57;;;1.50;;
46563;SDS011;32291;52.010;4.446;2022-11-04T01:01:50;10.30;;;2.10;;
46563;SDS011;32291;52.010;4.446;2022-11-04T01:02:57;5.25;;;1.88;;
46563;SDS011;32291;52.010;4.446;2022-11-04T01:04:05;7.03;;;2.03;;
46563;SDS011;32291;52.010;4.446;2022-11-04T01:05:12;6.93;;;2.50;;
46563;SDS011;32291;52.010;4.446;2022-11-04T01:06:20;6.63;;;2.25;;
46563;SDS011;32291;52.010;4.446;2022-11-04T01:07:31;8.68;;;2.13;;
46563;SDS011;32291;52.010;4.446;2022-11-04T01:08:38;5.13;;;2.20;;
46563;SDS011;32291;52.010;4.446;2022-11-04T01:09:47;8.90;;;2.42;;
46563;SDS011;32291;52.010;4.446;2022-11-04T01:10:54;5.10;;;2.28;;
46563;SDS011;32291;52.010;4.446;2022-11-04T01:12:01;2.85;;;1.30;;
46563;SDS011;32291;52.010;4.446;2022-11-04T01:13:09;3.92;;;1.17;;
46563;SDS011;32291;52.010;4.446;2022-11-04T01:14:12;5.55;;;1.20;;
46563;SDS011;32291;52.010;4.446;2022-11-04T01:15:15;2.95;;;1.52;;
46563;SDS011;32291;52.010;4.446;2022-11-04T01:16:23;2.97;;;1.25;;
46563;SDS011;32291;52.010;4.446;2022-11-04T01:17:31;5.65;;;1.65;;
46563;SDS011;32291;52.010;4.446;2022-11-04T01:18:38;3.50;;;1.17;;
46563;SDS011;32291;52.010;4.446;2022-11-04T01:19:42;6.35;;;1.13;;
46563;SDS011;32291;52.010;4.446;2022-11-04T01:20:44;1.70;;;1.13;;
46563;SDS011;32291;52.010;4.446;2022-11-04T01:21:52;5.20;;;1.17;;
46563;SDS011;32291;52.010;4.446;2022-11-04T01:22:59;3.60;;;1.20;;
46563;SDS011;32291;52.010;4.446;2022-11-04T01:24:06;3.50;;;1.33;;
46563;SDS011;32291;52.010;4.446;2022-11-04T01:25:13;5.72;;;1.33;;
46563;SDS011;32291;52.010;4.446;2022-11-04T01:26:21;3.13;;;1.20;;
46563;SDS011;32291;52.010;4.446;2022-11-04T01:27:26;3.22;;;1.30;;
46563;SDS011;32291;52.010;4.446;2022-11-04T01:28:29;1.25;;;0.82;;
46563;SDS011;32291;52.010;4.446;2022-11-04T01:29:36;3.72;;;1.17;;
46563;SDS011;32291;52.010;4.446;2022-11-04T01:30:44;2.38;;;0.88;;
46563;SDS011;32291;52.010;4.446;2022-11-04T01:31:46;1.10;;;0.75;;
46563;SDS011;32291;52.010;4.446;2022-11-04T01:32:48;4.03;;;0.80;;
46563;SDS011;32291;52.010;4.446;2022-11-04T01:33:56;2.58;;;1.13;;
46563;SDS011;32291;52.010;4.446;2022-11-04T01:35:00;2.15;;;0.90;;
46563;SDS011;32291;52.010;4.446;2022-11-04T01:36:07;3.42;;;1.55;;
46563;SDS011;32291;52.010;4.446;2022-11-04T01:37:16;1.90;;;0.90;;
46563;SDS011;32291;52.010;4.446;2022-11-04T01:38:23;4.18;;;1.00;;
46563;SDS011;32291;52.010;4.446;2022-11-04T01:39:30;2.85;;;1.00;;
46563;SDS011;32291;52.010;4.446;2022-11-04T01:40:36;1.88;;;0.70;;
46563;SDS011;32291;52.010;4.446;2022-11-04T01:41:46;2.58;;;1.05;;
46563;SDS011;32291;52.010;4.446;2022-11-04T01:42:53;2.85;;;1.02;;
46563;SDS011;32291;52.010;4.446;2022-11-04T01:43:57;2.55;;;1.00;;
46563;SDS011;32291;52.010;4.446;2022-11-04T01:45:14;5.30;;;1.10;;
46563;SDS011;32291;52.010;4.446;2022-11-04T01:46:35;6.43;;;1.42;;
46563;SDS011;32291;52.010;4.446;2022-11-04T01:48:03;3.65;;;1.30;;
46563;SDS011;32291;52.010;4.446;2022-11-04T01:49:24;3.90;;;1.20;;
46563;SDS011;32291;52.010;4.446;2022-11-04T01:50:44;2.63;;;1.05;;
46563;SDS011;32291;52.010;4.446;2022-11-04T01:51:56;2.83;;;1.10;;
46563;SDS011;32291;52.010;4.446;2022-11-04T01:53:27;3.13;;;1.17;;
46563;SDS011;32291;52.010;4.446;2022-11-04T01:54:46;3.38;;;1.20;;
46563;SDS011;32291;52.010;4.446;2022-11-04T01:56:04;1.48;;;0.95;;
46563;SDS011;32291;52.010;4.446;2022-11-04T01:57:22;1.55;;;1.27;;
46563;SDS011;32291;52.010;4.446;2022-11-04T01:58:44;4.85;;;1.25;;
46563;SDS011;32291;52.010;4.446;2022-11-04T02:00:00;2.72;;;1.23;;
46563;SDS011;32291;52.010;4.446;2022-11-04T02:01:12;5.78;;;1.30;;
46563;SDS011;32291;52.010;4.446;2022-11-04T02:02:20;2.58;;;1.30;;
46563;SDS011;32291;52.010;4.446;2022-11-04T02:05:20;3.70;;;1.63;;
46563;SDS011;32291;52.010;4.446;2022-11-04T02:06:23;2.97;;;1.60;;
46563;SDS011;32291;52.010;4.446;2022-11-04T02:07:31;4.65;;;2.25;;
46563;SDS011;32291;52.010;4.446;2022-11-04T02:08:34;4.47;;;2.45;;
46563;SDS011;32291;52.010;4.446;2022-11-04T02:09:45;5.20;;;2.53;;
46563;SDS011;32291;52.010;4.446;2022-11-04T02:10:52;5.30;;;2.30;;
46563;SDS011;32291;52.010;4.446;2022-11-04T02:12:01;6.43;;;2.40;;
46563;SDS011;32291;52.010;4.446;2022-11-04T02:13:27;4.55;;;2.70;;
46563;SDS011;32291;52.010;4.446;2022-11-04T02:14:40;9.02;;;5.55;;
46563;SDS011;32291;52.010;4.446;2022-11-04T02:22:55;7.03;;;3.72;;
46563;SDS011;32291;52.010;4.446;2022-11-04T02:36:02;9.27;;;6.07;;
46563;SDS011;32291;52.010;4.446;2022-11-04T02:42:48;8.90;;;6.45;;
46563;SDS011;32291;52.010;4.446;2022-11-04T02:47:39;12.35;;;8.25;;
46563;SDS011;32291;52.010;4.446;2022-11-04T02:50:23;14.82;;;10.85;;
46563;SDS011;32291;52.010;4.446;2022-11-04T02:52:16;15.07;;;10.55;;
46563;SDS011;32291;52.010;4.446;2022-11-04T02:53:37;17.27;;;12.80;;
46563;SDS011;32291;52.010;4.446;2022-11-04T02:55:02;18.27;;;11.45;;
46563;SDS011;32291;52.010;4.446;2022-11-04T02:56:22;18.10;;;12.63;;
46563;SDS011;32291;52.010;4.446;2022-11-04T02:57:34;17.15;;;12.27;;
46563;SDS011;32291;52.010;4.446;2022-11-04T02:58:51;19.20;;;13.23;;
46563;SDS011;32291;52.010;4.446;2022-11-04T03:00:10;16.17;;;12.82;;
46563;SDS011;32291;52.010;4.446;2022-11-04T03:01:16;16.77;;;12.32;;
46563;SDS011;32291;52.010;4.446;2022-11-04T03:02:46;18.98;;;11.98;;
46563;SDS011;32291;52.010;4.446;2022-11-04T03:04:00;19.17;;;11.18;;
46563;SDS011;32291;52.010;4.446;2022-11-04T03:05:16;21.23;;;13.57;;
46563;SDS011;32291;52.010;4.446;2022-11-04T03:06:31;17.65;;;12.77;;
46563;SDS011;32291;52.010;4.446;2022-11-04T03:07:38;20.02;;;12.55;;
46563;SDS011;32291;52.010;4.446;2022-11-04T03:08:46;17.98;;;12.68;;
46563;SDS011;32291;52.010;4.446;2022-11-04T03:09:57;20.50;;;13.88;;
46563;SDS011;32291;52.010;4.446;2022-11-04T03:11:10;19.85;;;13.68;;
46563;SDS011;32291;52.010;4.446;2022-11-04T03:12:21;19.48;;;13.43;;
46563;SDS011;32291;52.010;4.446;2022-11-04T03:13:43;21.67;;;13.23;;
46563;SDS011;32291;52.010;4.446;2022-11-04T03:15:04;19.10;;;11.82;;
46563;SDS011;32291;52.010;4.446;2022-11-04T03:16:26;22.25;;;13.13;;
46563;SDS011;32291;52.010;4.446;2022-11-04T03:19:43;20.80;;;13.70;;
46563;SDS011;32291;52.010;4.446;2022-11-04T03:20:57;20.15;;;14.63;;
46563;SDS011;32291;52.010;4.446;2022-11-04T03:22:16;22.90;;;14.73;;
46563;SDS011;32291;52.010;4.446;2022-11-04T03:23:25;22.27;;;14.38;;
46563;SDS011;32291;52.010;4.446;2022-11-04T03:24:33;22.60;;;14.32;;
46563;SDS011;32291;52.010;4.446;2022-11-04T03:25:42;18.02;;;13.65;;
46563;SDS011;32291;52.010;4.446;2022-11-04T03:27:00;24.90;;;15.50;;
46563;SDS011;32291;52.010;4.446;2022-11-04T03:28:34;25.42;;;15.55;;
46563;SDS011;32291;52.010;4.446;2022-11-04T03:30:10;24.88;;;14.85;;
46563;SDS011;32291;52.010;4.446;2022-11-04T03:31:23;26.85;;;15.70;;
46563;SDS011;32291;52.010;4.446;2022-11-04T03:34:57;26.80;;;14.48;;
46563;SDS011;32291;52.010;4.446;2022-11-04T03:36:00;26.92;;;16.75;;
46563;SDS011;32291;52.010;4.446;2022-11-04T03:37:08;29.02;;;16.73;;
46563;SDS011;32291;52.010;4.446;2022-11-04T03:38:16;28.35;;;16.35;;
46563;SDS011;32291;52.010;4.446;2022-11-04T03:39:27;26.60;;;16.10;;
46563;SDS011;32291;52.010;4.446;2022-11-04T03:40:30;24.92;;;16.40;;
46563;SDS011;32291;52.010;4.446;2022-11-04T03:41:40;29.98;;;17.52;;
46563;SDS011;32291;52.010;4.446;2022-11-04T03:43:25;28.77;;;15.95;;
46563;SDS011;32291;52.010;4.446;2022-11-04T03:44:35;27.17;;;15.65;;
46563;SDS011;32291;52.010;4.446;2022-11-04T03:45:42;28.00;;;16.88;;
46563;SDS011;32291;52.010;4.446;2022-11-04T03:46:46;30.90;;;17.38;;
46563;SDS011;32291;52.010;4.446;2022-11-04T03:47:54;27.20;;;16.50;;
46563;SDS011;32291;52.010;4.446;2022-11-04T03:49:03;27.52;;;16.48;;
46563;SDS011;32291;52.010;4.446;2022-11-04T03:50:29;33.08;;;18.40;;
46563;SDS011;32291;52.010;4.446;2022-11-04T03:51:52;26.08;;;15.60;;
46563;SDS011;32291;52.010;4.446;2022-11-04T03:52:59;29.27;;;17.27;;
46563;SDS011;32291;52.010;4.446;2022-11-04T03:54:02;32.83;;;18.50;;
46563;SDS011;32291;52.010;4.446;2022-11-04T03:55:11;35.80;;;18.98;;
46563;SDS011;32291;52.010;4.446;2022-11-04T03:56:28;32.90;;;18.88;;
46563;SDS011;32291;52.010;4.446;2022-11-04T03:57:56;33.47;;;19.13;;
46563;SDS011;32291;52.010;4.446;2022-11-04T04:04:35;31.38;;;16.75;;
46563;SDS011;32291;52.010;4.446;2022-11-04T04:06:02;33.72;;;17.75;;
46563;SDS011;32291;52.010;4.446;2022-11-04T04:07:31;34.95;;;20.70;;
46563;SDS011;32291;52.010;4.446;2022-11-04T04:08:45;40.35;;;20.23;;
46563;SDS011;32291;52.010;4.446;2022-11-04T04:10:10;39.30;;;20.90;;
46563;SDS011;32291;52.010;4.446;2022-11-04T04:11:44;35.13;;;19.10;;
46563;SDS011;32291;52.010;4.446;2022-11-04T04:14:47;38.30;;;20.48;;
46563;SDS011;32291;52.010;4.446;2022-11-04T04:18:42;40.53;;;20.63;;
46563;SDS011;32291;52.010;4.446;2022-11-04T04:20:05;44.13;;;22.55;;
46563;SDS011;32291;52.010;4.446;2022-11-04T04:21:55;43.72;;;20.85;;
46563;SDS011;32291;52.010;4.446;2022-11-04T04:23:19;42.85;;;19.88;;
46563;SDS011;32291;52.010;4.446;2022-11-04T04:24:55;42.97;;;20.55;;
46563;SDS011;32291;52.010;4.446;2022-11-04T04:26:25;31.58;;;18.77;;
46563;SDS011;32291;52.010;4.446;2022-11-04T04:27:49;45.25;;;19.95;;
46563;SDS011;32291;52.010;4.446;2022-11-04T04:29:02;43.90;;;20.60;;
46563;SDS011;32291;52.010;4.446;2022-11-04T04:30:15;47.20;;;19.60;;
46563;SDS011;32291;52.010;4.446;2022-11-04T04:31:22;58.95;;;23.50;;
46563;SDS011;32291;52.010;4.446;2022-11-04T04:32:52;40.03;;;21.00;;
46563;SDS011;32291;52.010;4.446;2022-11-04T04:34:06;47.35;;;21.50;;
46563;SDS011;32291;52.010;4.446;2022-11-04T04:35:14;44.15;;;21.98;;
46563;SDS011;32291;52.010;4.446;2022-11-04T04:36:45;37.83;;;20.25;;
46563;SDS011;32291;52.010;4.446;2022-11-04T04:38:32;42.38;;;21.13;;
46563;SDS011;32291;52.010;4.446;2022-11-04T04:40:00;45.95;;;21.65;;
46563;SDS011;32291;52.010;4.446;2022-11-04T04:41:22;43.00;;;20.77;;
46563;SDS011;32291;52.010;4.446;2022-11-04T04:42:55;47.75;;;20.65;;
46563;SDS011;32291;52.010;4.446;2022-11-04T04:45:52;46.17;;;21.02;;
46563;SDS011;32291;52.010;4.446;2022-11-04T04:46:57;41.83;;;21.50;;
46563;SDS011;32291;52.010;4.446;2022-11-04T04:48:10;48.65;;;21.95;;
46563;SDS011;32291;52.010;4.446;2022-11-04T04:49:18;46.80;;;21.33;;
46563;SDS011;32291;52.010;4.446;2022-11-04T04:50:35;41.00;;;20.63;;
46563;SDS011;32291;52.010;4.446;2022-11-04T04:51:53;46.58;;;20.58;;
46563;SDS011;32291;52.010;4.446;2022-11-04T04:53:00;59.90;;;24.45;;
46563;SDS011;32291;52.010;4.446;2022-11-04T04:54:04;55.72;;;24.25;;
46563;SDS011;32291;52.010;4.446;2022-11-04T04:55:12;55.15;;;23.75;;
46563;SDS011;32291;52.010;4.446;2022-11-04T04:56:21;60.83;;;23.23;;
46563;SDS011;32291;52.010;4.446;2022-11-04T04:57:28;47.20;;;22.65;;
46563;SDS011;32291;52.010;4.446;2022-11-04T04:58:35;48.25;;;23.55;;
46563;SDS011;32291;52.010;4.446;2022-11-04T04:59:42;49.63;;;21.00;;
46563;SDS011;32291;52.010;4.446;2022-11-04T05:00:49;42.95;;;21.58;;
46563;SDS011;32291;52.010;4.446;2022-11-04T05:01:56;45.78;;;20.67;;
46563;SDS011;32291;52.010;4.446;2022-11-04T05:03:03;46.40;;;22.33;;
46563;SDS011;32291;52.010;4.446;2022-11-04T05:04:11;50.88;;;22.13;;
46563;SDS011;32291;52.010;4.446;2022-11-04T05:05:18;46.75;;;22.63;;
46563;SDS011;32291;52.010;4.446;2022-11-04T05:06:21;45.72;;;23.35;;
46563;SDS011;32291;52.010;4.446;2022-11-04T05:07:24;41.97;;;22.20;;
46563;SDS011;32291;52.010;4.446;2022-11-04T05:08:31;49.97;;;21.73;;
46563;SDS011;32291;52.010;4.446;2022-11-04T05:09:35;41.08;;;21.02;;
46563;SDS011;32291;52.010;4.446;2022-11-04T05:10:42;35.53;;;20.35;;
46563;SDS011;32291;52.010;4.446;2022-11-04T05:11:50;45.38;;;21.67;;
46563;SDS011;32291;52.010;4.446;2022-11-04T05:12:58;38.40;;;20.58;;
46563;SDS011;32291;52.010;4.446;2022-11-04T05:14:19;48.95;;;22.58;;
46563;SDS011;32291;52.010;4.446;2022-11-04T05:15:22;49.35;;;23.40;;
46563;SDS011;32291;52.010;4.446;2022-11-04T05:16:26;52.70;;;24.20;;
46563;SDS011;32291;52.010;4.446;2022-11-04T05:17:29;51.78;;;23.60;;
46563;SDS011;32291;52.010;4.446;2022-11-04T05:18:36;48.22;;;24.02;;
46563;SDS011;32291;52.010;4.446;2022-11-04T05:19:44;42.17;;;22.38;;
46563;SDS011;32291;52.010;4.446;2022-11-04T05:20:51;47.38;;;22.77;;
46563;SDS011;32291;52.010;4.446;2022-11-04T05:21:58;46.80;;;22.92;;
46563;SDS011;32291;52.010;4.446;2022-11-04T05:23:06;51.15;;;22.83;;
46563;SDS011;32291;52.010;4.446;2022-11-04T05:24:12;43.38;;;22.10;;
46563;SDS011;32291;52.010;4.446;2022-11-04T05:25:19;36.38;;;21.65;;
46563;SDS011;32291;52.010;4.446;2022-11-04T05:26:27;39.03;;;20.75;;
46563;SDS011;32291;52.010;4.446;2022-11-04T05:27:34;44.50;;;20.85;;
46563;SDS011;32291;52.010;4.446;2022-11-04T05:28:36;43.72;;;21.52;;
46563;SDS011;32291;52.010;4.446;2022-11-04T05:29:39;43.40;;;21.13;;
46563;SDS011;32291;52.010;4.446;2022-11-04T05:30:46;45.47;;;20.88;;
46563;SDS011;32291;52.010;4.446;2022-11-04T05:31:48;36.85;;;21.02;;
46563;SDS011;32291;52.010;4.446;2022-11-04T05:32:50;35.17;;;20.45;;
46563;SDS011;32291;52.010;4.446;2022-11-04T05:33:58;38.95;;;21.10;;
46563;SDS011;32291;52.010;4.446;2022-11-04T05:35:05;37.33;;;21.13;;
46563;SDS011;32291;52.010;4.446;2022-11-04T05:36:14;36.75;;;20.55;;
46563;SDS011;32291;52.010;4.446;2022-11-04T05:37:22;38.72;;;20.50;;
46563;SDS011;32291;52.010;4.446;2022-11-04T05:38:25;39.78;;;22.25;;
46563;SDS011;32291;52.010;4.446;2022-11-04T05:39:32;37.65;;;21.58;;
46563;SDS011;32291;52.010;4.446;2022-11-04T05:40:39;48.72;;;21.10;;
46563;SDS011;32291;52.010;4.446;2022-11-04T05:41:46;35.08;;;19.40;;
46563;SDS011;32291;52.010;4.446;2022-11-04T05:42:56;35.92;;;20.08;;
46563;SDS011;32291;52.010;4.446;2022-11-04T05:44:05;34.08;;;19.73;;
46563;SDS011;32291;52.010;4.446;2022-11-04T05:45:10;39.40;;;20.08;;
46563;SDS011;32291;52.010;4.446;2022-11-04T05:46:17;41.47;;;21.05;;
46563;SDS011;32291;52.010;4.446;2022-11-04T05:47:20;37.15;;;21.20;;
46563;SDS011;32291;52.010;4.446;2022-11-04T05:48:22;38.47;;;20.38;;
46563;SDS011;32291;52.010;4.446;2022-11-04T05:49:24;33.55;;;20.08;;
46563;SDS011;32291;52.010;4.446;2022-11-04T05:50:27;36.30;;;19.90;;
46563;SDS011;32291;52.010;4.446;2022-11-04T05:51:38;35.20;;;18.75;;
46563;SDS011;32291;52.010;4.446;2022-11-04T05:52:41;30.17;;;18.77;;
46563;SDS011;32291;52.010;4.446;2022-11-04T05:53:48;31.60;;;17.00;;
46563;SDS011;32291;52.010;4.446;2022-11-04T05:54:55;27.70;;;16.75;;
46563;SDS011;32291;52.010;4.446;2022-11-04T05:56:03;33.25;;;16.42;;
46563;SDS011;32291;52.010;4.446;2022-11-04T05:57:10;32.67;;;16.50;;
46563;SDS011;32291;52.010;4.446;2022-11-04T05:58:17;27.90;;;17.45;;
46563;SDS011;32291;52.010;4.446;2022-11-04T05:59:19;31.58;;;15.30;;
46563;SDS011;32291;52.010;4.446;2022-11-04T06:00:26;24.92;;;14.55;;
46563;SDS011;32291;52.010;4.446;2022-11-04T06:01:37;27.27;;;14.75;;
46563;SDS011;32291;52.010;4.446;2022-11-04T06:02:43;31.45;;;14.43;;
46563;SDS011;32291;52.010;4.446;2022-11-04T06:03:50;29.10;;;14.43;;
46563;SDS011;32291;52.010;4.446;2022-11-04T06:04:59;28.20;;;14.45;;
46563;SDS011;32291;52.010;4.446;2022-11-04T06:06:06;24.52;;;13.95;;
46563;SDS011;32291;52.010;4.446;2022-11-04T06:07:13;20.90;;;12.90;;
46563;SDS011;32291;52.010;4.446;2022-11-04T06:08:20;22.52;;;13.65;;
46563;SDS011;32291;52.010;4.446;2022-11-04T06:09:27;29.73;;;13.98;;
46563;SDS011;32291;52.010;4.446;2022-11-04T06:10:44;23.83;;;14.10;;
46563;SDS011;32291;52.010;4.446;2022-11-04T06:11:51;28.33;;;15.27;;
46563;SDS011;32291;52.010;4.446;2022-11-04T06:12:58;29.52;;;15.02;;
46563;SDS011;32291;52.010;4.446;2022-11-04T06:14:00;28.02;;;13.45;;
46563;SDS011;32291;52.010;4.446;2022-11-04T06:15:02;30.40;;;14.75;;
46563;SDS011;32291;52.010;4.446;2022-11-04T06:16:06;29.80;;;14.20;;
46563;SDS011;32291;52.010;4.446;2022-11-04T06:17:15;22.55;;;12.77;;
46563;SDS011;32291;52.010;4.446;2022-11-04T06:18:22;27.92;;;13.73;;
46563;SDS011;32291;52.010;4.446;2022-11-04T06:19:24;26.75;;;14.20;;
46563;SDS011;32291;52.010;4.446;2022-11-04T06:20:32;24.63;;;13.38;;
46563;SDS011;32291;52.010;4.446;2022-11-04T06:21:34;26.40;;;13.88;;
46563;SDS011;32291;52.010;4.446;2022-11-04T06:22:41;21.70;;;13.35;;
46563;SDS011;32291;52.010;4.446;2022-11-04T06:23:44;26.50;;;13.50;;
46563;SDS011;32291;52.010;4.446;2022-11-04T06:24:51;21.33;;;12.15;;
46563;SDS011;32291;52.010;4.446;2022-11-04T06:25:54;27.30;;;13.32;;
46563;SDS011;32291;52.010;4.446;2022-11-04T06:26:56;21.77;;;12.50;;
46563;SDS011;32291;52.010;4.446;2022-11-04T06:28:03;29.58;;;12.68;;
46563;SDS011;32291;52.010;4.446;2022-11-04T06:29:06;24.48;;;12.02;;
46563;SDS011;32291;52.010;4.446;2022-11-04T06:30:10;22.52;;;11.07;;
46563;SDS011;32291;52.010;4.446;2022-11-04T06:31:18;19.23;;;10.68;;
46563;SDS011;32291;52.010;4.446;2022-11-04T06:32:25;15.35;;;9.82;;
46563;SDS011;32291;52.010;4.446;2022-11-04T06:33:32;22.42;;;10.85;;
46563;SDS011;32291;52.010;4.446;2022-11-04T06:34:40;21.40;;;11.10;;
46563;SDS011;32291;52.010;4.446;2022-11-04T06:35:47;18.95;;;10.88;;
46563;SDS011;32291;52.010;4.446;2022-11-04T06:36:54;21.23;;;10.35;;
46563;SDS011;32291;52.010;4.446;2022-11-04T06:37:56;21.17;;;10.30;;
46563;SDS011;32291;52.010;4.446;2022-11-04T06:38:59;20.58;;;10.32;;
46563;SDS011;32291;52.010;4.446;2022-11-04T06:40:06;27.88;;;11.35;;
46563;SDS011;32291;52.010;4.446;2022-11-04T06:41:15;27.67;;;10.93;;
46563;SDS011;32291;52.010;4.446;2022-11-04T06:42:18;22.65;;;11.00;;
46563;SDS011;32291;52.010;4.446;2022-11-04T06:43:20;20.52;;;10.98;;
46563;SDS011;32291;52.010;4.446;2022-11-04T06:44:22;21.50;;;11.73;;
46563;SDS011;32291;52.010;4.446;2022-11-04T06:45:29;22.60;;;11.77;;
46563;SDS011;32291;52.010;4.446;2022-11-04T06:46:37;19.27;;;12.68;;
46563;SDS011;32291;52.010;4.446;2022-11-04T06:47:47;25.65;;;14.57;;
46563;SDS011;32291;52.010;4.446;2022-11-04T06:48:50;27.20;;;13.50;;
46563;SDS011;32291;52.010;4.446;2022-11-04T06:49:53;26.33;;;14.18;;
46563;SDS011;32291;52.010;4.446;2022-11-04T06:50:56;24.33;;;14.52;;
46563;SDS011;32291;52.010;4.446;2022-11-04T06:52:05;28.95;;;15.65;;
46563;SDS011;32291;52.010;4.446;2022-11-04T06:53:12;26.52;;;14.77;;
46563;SDS011;32291;52.010;4.446;2022-11-04T06:54:19;29.33;;;15.02;;
46563;SDS011;32291;52.010;4.446;2022-11-04T06:55:26;27.30;;;14.02;;
46563;SDS011;32291;52.010;4.446;2022-11-04T06:56:33;28.45;;;14.50;;
46563;SDS011;32291;52.010;4.446;2022-11-04T06:57:41;27.95;;;15.65;;
46563;SDS011;32291;52.010;4.446;2022-11-04T06:58:46;28.90;;;15.52;;
46563;SDS011;32291;52.010;4.446;2022-11-04T06:59:55;31.02;;;16.33;;
46563;SDS011;32291;52.010;4.446;2022-11-04T07:01:02;26.83;;;15.88;;
46563;SDS011;32291;52.010;4.446;2022-11-04T07:02:09;31.33;;;17.05;;
46563;SDS011;32291;52.010;4.446;2022-11-04T07:03:18;34.72;;;17.42;;
46563;SDS011;32291;52.010;4.446;2022-11-04T07:04:25;34.97;;;16.35;;
46563;SDS011;32291;52.010;4.446;2022-11-04T07:05:32;36.33;;;17.85;;
46563;SDS011;32291;52.010;4.446;2022-11-04T07:06:42;35.10;;;17.75;;
46563;SDS011;32291;52.010;4.446;2022-11-04T07:07:45;30.55;;;17.90;;
46563;SDS011;32291;52.010;4.446;2022-11-04T07:08:52;37.15;;;19.05;;
46563;SDS011;32291;52.010;4.446;2022-11-04T07:10:02;31.42;;;17.48;;
46563;SDS011;32291;52.010;4.446;2022-11-04T07:11:10;38.78;;;19.00;;
46563;SDS011;32291;52.010;4.446;2022-11-04T07:12:18;35.95;;;19.98;;
46563;SDS011;32291;52.010;4.446;2022-11-04T07:13:22;33.75;;;20.17;;
46563;SDS011;32291;52.010;4.446;2022-11-04T07:14:24;38.90;;;20.75;;
46563;SDS011;32291;52.010;4.446;2022-11-04T07:15:28;38.38;;;21.98;;
46563;SDS011;32291;52.010;4.446;2022-11-04T07:16:35;37.30;;;19.65;;
46563;SDS011;32291;52.010;4.446;2022-11-04T07:17:42;37.22;;;20.23;;
46563;SDS011;32291;52.010;4.446;2022-11-04T07:18:49;34.80;;;19.35;;
46563;SDS011;32291;52.010;4.446;2022-11-04T07:19:59;38.30;;;21.75;;
46563;SDS011;32291;52.010;4.446;2022-11-04T07:21:01;38.47;;;20.13;;
46563;SDS011;32291;52.010;4.446;2022-11-04T07:22:10;31.88;;;20.55;;
46563;SDS011;32291;52.010;4.446;2022-11-04T07:23:17;32.85;;;19.90;;
46563;SDS011;32291;52.010;4.446;2022-11-04T07:24:24;42.17;;;21.02;;
46563;SDS011;32291;52.010;4.446;2022-11-04T07:25:31;38.13;;;21.10;;
46563;SDS011;32291;52.010;4.446;2022-11-04T07:26:38;33.08;;;20.50;;
46563;SDS011;32291;52.010;4.446;2022-11-04T07:27:47;33.67;;;20.52;;
46563;SDS011;32291;52.010;4.446;2022-11-04T07:28:54;33.63;;;20.40;;
46563;SDS011;32291;52.010;4.446;2022-11-04T07:30:01;31.48;;;20.50;;
46563;SDS011;32291;52.010;4.446;2022-11-04T07:31:09;30.08;;;19.85;;
46563;SDS011;32291;52.010;4.446;2022-11-04T07:32:13;33.83;;;21.25;;
46563;SDS011;32291;52.010;4.446;2022-11-04T07:33:21;34.95;;;19.90;;
46563;SDS011;32291;52.010;4.446;2022-11-04T07:34:29;28.45;;;19.55;;
46563;SDS011;32291;52.010;4.446;2022-11-04T07:35:36;33.17;;;19.70;;
46563;SDS011;32291;52.010;4.446;2022-11-04T07:36:44;33.22;;;19.88;;
46563;SDS011;32291;52.010;4.446;2022-11-04T07:37:51;33.78;;;18.45;;
46563;SDS011;32291;52.010;4.446;2022-11-04T07:38:58;31.98;;;20.33;;
46563;SDS011;32291;52.010;4.446;2022-11-04T07:40:06;38.78;;;18.70;;
46563;SDS011;32291;52.010;4.446;2022-11-04T07:41:14;29.35;;;18.35;;
46563;SDS011;32291;52.010;4.446;2022-11-04T07:42:23;29.27;;;18.42;;
46563;SDS011;32291;52.010;4.446;2022-11-04T07:43:30;36.08;;;19.52;;